Time;durP1;ratioP1;P1;durP2;ratioP2;P2;SDS_P1;SDS_P2;PMS_P1;PMS_P2;Temp;Humidity;BMP_temperature;BMP_pressure;BME280_temperature;BME280_humidity;BME280_pressure;Samples;Min_cycle;Max_cycle;Signal;HPM_P1;HPM_P2
2023/11/11 00:01:45;0.00;0.00;0.62;0.00;0.00;0.62;1.70;1.00;;;21.90;28.60;;;;;;2273230;61;20834;-62
2023/11/11 00:04:29;0.00;0.00;0.62;0.00;0.00;0.62;1.93;1.00;;;21.90;28.60;;;;;;2273278;61;20375;-61
2023/11/11 00:07:15;0.00;0.00;0.62;0.00;0.00;0.62;1.70;1.10;;;21.90;28.60;;;;;;2273084;61;20403;-62
2023/11/11 00:10:00;0.00;0.00;0.62;0.00;0.00;0.62;1.60;0.90;;;21.90;28.60;;;;;;2272905;61;20355;-63
2023/11/11 00:12:45;0.00;0.00;0.62;0.00;0.00;0.62;1.70;1.00;;;21.90;28.60;;;;;;2269555;61;20370;-63
2023/11/11 00:15:33;0.00;0.00;0.62;0.00;0.00;0.62;1.50;0.83;;;21.90;28.60;;;;;;2273252;61;20558;-59
2023/11/11 00:18:18;0.00;0.00;0.62;0.00;0.00;0.62;1.70;1.17;;;21.90;28.60;;;;;;2272836;61;20451;-59
2023/11/11 00:21:03;0.00;0.00;0.62;0.00;0.00;0.62;2.20;1.10;;;21.90;28.60;;;;;;2272923;61;20354;-60
2023/11/11 00:23:48;0.00;0.00;0.62;0.00;0.00;0.62;1.87;1.20;;;21.90;28.60;;;;;;2273471;61;20923;-61
2023/11/11 00:26:33;0.00;0.00;0.62;0.00;0.00;0.62;1.77;1.23;;;21.90;28.60;;;;;;2273191;61;20400;-60
2023/11/11 00:29:17;0.00;0.00;0.62;0.00;0.00;0.62;1.80;1.10;;;21.90;28.60;;;;;;2272569;61;20889;-63
2023/11/11 00:32:04;0.00;0.00;0.62;0.00;0.00;0.62;1.70;1.13;;;21.90;28.60;;;;;;2270010;61;20381;-61
2023/11/11 00:34:49;0.00;0.00;0.62;0.00;0.00;0.62;2.47;1.07;;;21.90;28.60;;;;;;2272623;61;20382;-62
2023/11/11 00:37:34;0.00;0.00;0.62;0.00;0.00;0.62;1.60;1.00;;;21.90;28.60;;;;;;2273249;61;20902;-61
2023/11/11 00:40:19;0.00;0.00;0.62;0.00;0.00;0.62;1.50;0.90;;;21.90;28.60;;;;;;2273080;61;20448;-61
2023/11/11 00:43:03;0.00;0.00;0.62;0.00;0.00;0.62;1.43;0.87;;;21.90;28.60;;;;;;2269741;61;20370;-62
2023/11/11 00:45:48;0.00;0.00;0.62;0.00;0.00;0.62;2.10;1.20;;;21.90;28.60;;;;;;2273579;61;20787;-62
2023/11/11 00:48:34;0.00;0.00;0.62;0.00;0.00;0.62;1.90;1.20;;;21.90;28.60;;;;;;2273139;61;20890;-62
2023/11/11 00:51:19;0.00;0.00;0.62;0.00;0.00;0.62;1.60;1.00;;;21.90;28.60;;;;;;2273112;61;20404;-63
2023/11/11 00:54:05;0.00;0.00;0.62;0.00;0.00;0.62;1.40;0.90;;;21.90;28.60;;;;;;2273340;61;20357;-62
2023/11/11 00:56:51;0.00;0.00;0.62;0.00;0.00;0.62;2.00;1.20;;;21.90;28.70;;;;;;2272877;61;20771;-62
2023/11/11 00:59:36;0.00;0.00;0.62;0.00;0.00;0.62;1.60;0.90;;;21.90;28.60;;;;;;2272964;61;20838;-61
2023/11/11 01:02:20;0.00;0.00;0.62;0.00;0.00;0.62;1.60;0.90;;;21.90;28.70;;;;;;2273202;61;20507;-61
2023/11/11 01:05:09;0.00;0.00;0.62;0.00;0.00;0.62;1.60;1.03;;;21.90;28.60;;;;;;2269707;60;20786;-60
2023/11/11 01:07:54;0.00;0.00;0.62;0.00;0.00;0.62;1.70;1.03;;;21.90;28.60;;;;;;2273097;61;20823;-63
2023/11/11 01:10:40;0.00;0.00;0.62;0.00;0.00;0.62;1.73;1.00;;;21.90;28.60;;;;;;2270079;61;20358;-60
2023/11/11 01:13:24;0.00;0.00;0.62;0.00;0.00;0.62;1.70;1.10;;;21.80;28.50;;;;;;2273399;61;20874;-60
2023/11/11 01:16:10;0.00;0.00;0.62;0.00;0.00;0.62;1.40;0.80;;;21.80;28.50;;;;;;2274208;61;20859;-60
2023/11/11 01:18:54;0.00;0.00;0.62;0.00;0.00;0.62;1.47;0.90;;;21.80;28.50;;;;;;2270032;61;20402;-59
2023/11/11 01:21:40;0.00;0.00;0.62;0.00;0.00;0.62;1.63;0.90;;;21.90;28.60;;;;;;2273867;61;20770;-61
2023/11/11 01:24:25;0.00;0.00;0.62;0.00;0.00;0.62;1.80;1.20;;;21.90;28.70;;;;;;2273835;61;20933;-60
2023/11/11 01:27:11;0.00;0.00;0.62;0.00;0.00;0.62;1.83;1.10;;;21.80;28.50;;;;;;2270063;61;20414;-61
2023/11/11 01:29:55;0.00;0.00;0.62;0.00;0.00;0.62;1.50;0.90;;;21.90;28.60;;;;;;2269809;61;20756;-62
2023/11/11 01:32:40;0.00;0.00;0.62;0.00;0.00;0.62;2.30;1.30;;;21.90;28.70;;;;;;2270250;61;20404;-63
2023/11/11 01:35:24;0.00;0.00;0.62;0.00;0.00;0.62;1.80;1.10;;;21.80;28.60;;;;;;2272827;61;20440;-60
2023/11/11 01:38:12;0.00;0.00;0.62;0.00;0.00;0.62;1.50;1.00;;;21.80;28.60;;;;;;2273074;61;20404;-61
2023/11/11 01:40:57;0.00;0.00;0.62;0.00;0.00;0.62;1.90;1.00;;;21.80;29.10;;;;;;2273263;61;20438;-60
2023/11/11 01:43:42;0.00;0.00;0.62;0.00;0.00;0.62;1.93;1.10;;;21.80;28.60;;;;;;2270071;61;20384;-63
2023/11/11 01:46:26;0.00;0.00;0.62;0.00;0.00;0.62;1.30;0.70;;;21.80;28.50;;;;;;2273449;61;20442;-63
2023/11/11 01:49:11;0.00;0.00;0.62;0.00;0.00;0.62;1.60;0.90;;;21.80;28.60;;;;;;2269673;61;20371;-61
2023/11/11 01:51:56;0.00;0.00;0.62;0.00;0.00;0.62;1.67;0.90;;;21.80;28.60;;;;;;2268699;61;20819;-62
2023/11/11 01:54:42;0.00;0.00;0.62;0.00;0.00;0.62;1.60;0.90;;;21.80;28.60;;;;;;2268645;61;20387;-62
2023/11/11 01:57:28;0.00;0.00;0.62;0.00;0.00;0.62;2.03;1.00;;;21.80;28.60;;;;;;2268320;61;20413;-62
2023/11/11 02:00:15;0.00;0.00;0.62;0.00;0.00;0.62;1.40;0.80;;;21.80;28.60;;;;;;2264861;61;20426;-61
2023/11/11 02:02:59;0.00;0.00;0.62;0.00;0.00;0.62;1.30;0.80;;;21.80;28.60;;;;;;2268632;61;20506;-62
2023/11/11 02:05:44;0.00;0.00;0.62;0.00;0.00;0.62;2.33;1.00;;;21.80;28.60;;;;;;2265289;61;20974;-62
2023/11/11 02:08:31;0.00;0.00;0.62;0.00;0.00;0.62;1.73;1.10;;;21.80;28.60;;;;;;2265067;61;20370;-62
2023/11/11 02:11:17;0.00;0.00;0.62;0.00;0.00;0.62;3.20;1.33;;;21.80;28.60;;;;;;2265118;61;20933;-62
2023/11/11 02:14:05;0.00;0.00;0.62;0.00;0.00;0.62;1.60;0.83;;;21.80;28.60;;;;;;2268553;61;20417;-62
2023/11/11 02:16:50;0.00;0.00;0.62;0.00;0.00;0.62;2.00;1.13;;;21.80;28.60;;;;;;2264248;61;20374;-62
2023/11/11 02:19:35;0.00;0.00;0.62;0.00;0.00;0.62;1.80;1.20;;;21.80;28.60;;;;;;2626345;45;20396;-62
2023/11/11 02:22:20;0.00;0.00;0.62;0.00;0.00;0.62;1.90;1.07;;;21.80;28.60;;;;;;2272712;61;20366;-61
2023/11/11 02:25:07;0.00;0.00;0.62;0.00;0.00;0.62;2.17;1.17;;;21.80;28.60;;;;;;2266374;61;20457;-61
2023/11/11 02:27:52;0.00;0.00;0.62;0.00;0.00;0.62;1.60;0.90;;;21.80;28.60;;;;;;2271855;61;20409;-61
2023/11/11 02:30:37;0.00;0.00;0.62;0.00;0.00;0.62;3.47;1.40;;;21.80;28.60;;;;;;2272731;61;20393;-59
2023/11/11 02:33:22;0.00;0.00;0.62;0.00;0.00;0.62;2.00;1.30;;;21.80;28.60;;;;;;2269265;61;20362;-61
2023/11/11 02:36:07;0.00;0.00;0.62;0.00;0.00;0.62;2.37;1.40;;;21.80;28.60;;;;;;2272562;61;20382;-60
2023/11/11 02:38:51;0.00;0.00;0.62;0.00;0.00;0.62;2.73;1.33;;;21.90;28.70;;;;;;2272341;61;20387;-61
2023/11/11 02:41:37;0.00;0.00;0.62;0.00;0.00;0.62;2.60;1.80;;;21.80;28.60;;;;;;2272191;61;20370;-61
2023/11/11 02:44:22;0.00;0.00;0.62;0.00;0.00;0.62;2.13;1.50;;;21.80;28.60;;;;;;2271920;61;20525;-64
2023/11/11 02:47:06;0.00;0.00;0.62;0.00;0.00;0.62;3.17;1.73;;;21.80;28.60;;;;;;2268523;61;20868;-61
2023/11/11 02:49:51;0.00;0.00;0.62;0.00;0.00;0.62;3.50;2.27;;;21.80;28.60;;;;;;2264833;61;20876;-61
2023/11/11 02:52:36;0.00;0.00;0.62;0.00;0.00;0.62;2.80;1.50;;;21.80;28.60;;;;;;2268367;61;20887;-62
2023/11/11 02:55:21;0.00;0.00;0.62;0.00;0.00;0.62;3.00;1.57;;;21.80;28.60;;;;;;2264988;61;20382;-61
2023/11/11 02:58:07;0.00;0.00;0.62;0.00;0.00;0.62;3.07;2.17;;;21.80;28.60;;;;;;2268001;61;20404;-61
2023/11/11 03:00:53;0.00;0.00;0.62;0.00;0.00;0.62;2.80;1.50;;;21.80;28.60;;;;;;2268324;61;20751;-62
2023/11/11 03:03:38;0.00;0.00;0.62;0.00;0.00;0.62;2.10;1.20;;;21.80;28.60;;;;;;2264916;61;20363;-61
2023/11/11 03:06:24;0.00;0.00;0.62;0.00;0.00;0.62;2.97;1.70;;;21.80;28.60;;;;;;2268446;61;20513;-63
2023/11/11 03:09:12;0.00;0.00;0.62;0.00;0.00;0.62;2.43;1.27;;;21.80;28.60;;;;;;2265039;61;20363;-62
2023/11/11 03:11:57;0.00;0.00;0.62;0.00;0.00;0.62;2.40;1.60;;;21.80;28.60;;;;;;2268292;61;20371;-62
2023/11/11 03:14:43;0.00;0.00;0.62;0.00;0.00;0.62;2.77;1.70;;;21.80;28.60;;;;;;2265081;61;20473;-62
2023/11/11 03:17:28;0.00;0.00;0.62;0.00;0.00;0.62;2.07;1.37;;;21.80;28.60;;;;;;2264951;61;20494;-60
2023/11/11 03:20:13;0.00;0.00;0.62;0.00;0.00;0.62;2.23;1.50;;;21.80;28.60;;;;;;2268035;61;21019;-62
2023/11/11 03:22:58;0.00;0.00;0.62;0.00;0.00;0.62;2.53;1.77;;;21.80;28.60;;;;;;2268335;61;20374;-60
2023/11/11 03:25:44;0.00;0.00;0.62;0.00;0.00;0.62;1.90;1.30;;;21.80;28.60;;;;;;2268082;61;20383;-61
2023/11/11 03:28:29;0.00;0.00;0.62;0.00;0.00;0.62;2.30;1.67;;;21.80;28.60;;;;;;2268073;61;20930;-62
2023/11/11 03:31:17;0.00;0.00;0.62;0.00;0.00;0.62;2.67;1.40;;;21.80;28.60;;;;;;2269031;61;20413;-61
2023/11/11 03:34:01;0.00;0.00;0.62;0.00;0.00;0.62;2.80;1.40;;;21.80;28.60;;;;;;2268857;61;20711;-62
2023/11/11 03:36:46;0.00;0.00;0.62;0.00;0.00;0.62;2.83;1.50;;;21.80;28.60;;;;;;2265764;61;20378;-62
2023/11/11 03:39:31;0.00;0.00;0.62;0.00;0.00;0.62;2.40;1.60;;;21.80;28.60;;;;;;2268311;61;20883;-62
2023/11/11 03:42:16;0.00;0.00;0.62;0.00;0.00;0.62;2.77;1.60;;;21.80;28.60;;;;;;2269167;61;20371;-62
2023/11/11 03:45:01;0.00;0.00;0.62;0.00;0.00;0.62;2.03;1.47;;;21.80;28.60;;;;;;2269117;61;20395;-62
2023/11/11 03:47:52;0.00;0.00;0.62;0.00;0.00;0.62;1.73;1.10;;;21.80;28.60;;;;;;2268761;61;20367;-62
2023/11/11 03:50:36;0.00;0.00;0.62;0.00;0.00;0.62;2.83;1.50;;;21.80;28.60;;;;;;2265922;61;20359;-62
2023/11/11 03:53:21;0.00;0.00;0.62;0.00;0.00;0.62;2.17;1.47;;;21.80;28.60;;;;;;2265759;61;20401;-62
2023/11/11 03:56:07;0.00;0.00;0.62;0.00;0.00;0.62;1.80;1.10;;;21.80;29.10;;;;;;2269097;61;20445;-62
2023/11/11 03:58:52;0.00;0.00;0.62;0.00;0.00;0.62;2.60;1.50;;;21.80;28.60;;;;;;2268619;61;20778;-61
2023/11/11 04:01:36;0.00;0.00;0.62;0.00;0.00;0.62;2.30;1.30;;;21.80;28.60;;;;;;2265783;61;20355;-61
2023/11/11 04:04:23;0.00;0.00;0.62;0.00;0.00;0.62;2.27;1.30;;;21.80;28.60;;;;;;2265594;61;20424;-60
2023/11/11 04:07:09;0.00;0.00;0.62;0.00;0.00;0.62;2.23;1.30;;;21.80;28.60;;;;;;2267623;61;20432;-63
2023/11/11 04:09:56;0.00;0.00;0.62;0.00;0.00;0.62;2.97;1.80;;;21.80;28.60;;;;;;2268071;61;20929;-63
2023/11/11 04:12:41;0.00;0.00;0.62;0.00;0.00;0.62;2.40;1.43;;;21.80;28.60;;;;;;2292771;57;20375;-63
2023/11/11 04:15:26;0.00;0.00;0.62;0.00;0.00;0.62;1.63;1.17;;;21.80;28.60;;;;;;2269582;61;20402;-63
2023/11/11 04:18:11;0.00;0.00;0.62;0.00;0.00;0.62;3.07;1.60;;;21.80;28.60;;;;;;2269106;61;20836;-62
2023/11/11 04:20:58;0.00;0.00;0.62;0.00;0.00;0.62;2.40;1.20;;;21.80;28.60;;;;;;2268869;61;20394;-63
2023/11/11 04:23:43;0.00;0.00;0.62;0.00;0.00;0.62;2.53;1.40;;;21.80;28.60;;;;;;2272729;61;20371;-64
2023/11/11 04:26:27;0.00;0.00;0.62;0.00;0.00;0.62;2.23;1.33;;;21.80;28.60;;;;;;2269361;61;20362;-62
2023/11/11 04:29:13;0.00;0.00;0.62;0.00;0.00;0.62;2.80;1.83;;;21.80;28.50;;;;;;2268424;61;20386;-62
2023/11/11 04:31:57;0.00;0.00;0.62;0.00;0.00;0.62;2.70;2.00;;;21.80;28.50;;;;;;2269481;61;20411;-63
2023/11/11 04:34:43;0.00;0.00;0.62;0.00;0.00;0.62;2.53;1.53;;;21.80;28.50;;;;;;2272970;61;20385;-59
2023/11/11 04:37:30;0.00;0.00;0.62;0.00;0.00;0.62;2.30;1.63;;;21.80;28.50;;;;;;2273135;61;20365;-61
2023/11/11 04:40:15;0.00;0.00;0.62;0.00;0.00;0.62;2.73;1.60;;;21.80;28.50;;;;;;2272490;60;20382;-61
2023/11/11 04:43:00;0.00;0.00;0.62;0.00;0.00;0.62;2.63;1.40;;;21.80;28.60;;;;;;2271974;61;20922;-63
2023/11/11 04:45:44;0.00;0.00;0.62;0.00;0.00;0.62;2.53;1.43;;;21.80;28.60;;;;;;2272947;61;20428;-61
2023/11/11 04:48:29;0.00;0.00;0.62;0.00;0.00;0.62;2.80;1.70;;;21.80;28.50;;;;;;2272034;61;20373;-62
2023/11/11 04:51:13;0.00;0.00;0.62;0.00;0.00;0.62;2.13;1.53;;;21.80;28.50;;;;;;2273166;61;20377;-62
2023/11/11 04:53:59;0.00;0.00;0.62;0.00;0.00;0.62;2.40;1.50;;;21.70;28.50;;;;;;2272765;61;20454;-62
2023/11/11 04:56:44;0.00;0.00;0.62;0.00;0.00;0.62;2.83;1.80;;;21.80;28.60;;;;;;2272943;61;20785;-62
2023/11/11 04:59:29;0.00;0.00;0.62;0.00;0.00;0.62;3.00;1.77;;;21.80;28.60;;;;;;2272446;61;20385;-61
2023/11/11 05:02:14;0.00;0.00;0.62;0.00;0.00;0.62;2.70;1.60;;;21.80;28.60;;;;;;2272688;61;20437;-61
2023/11/11 05:04:59;0.00;0.00;0.62;0.00;0.00;0.62;3.17;2.00;;;21.80;28.60;;;;;;2272781;61;20386;-61
2023/11/11 05:07:44;0.00;0.00;0.62;0.00;0.00;0.62;3.20;1.63;;;21.80;28.50;;;;;;2273057;61;20375;-63
2023/11/11 05:10:32;0.00;0.00;0.62;0.00;0.00;0.62;2.23;1.60;;;21.80;28.50;;;;;;2272878;61;20358;-59
2023/11/11 05:13:20;0.00;0.00;0.62;0.00;0.00;0.62;2.43;1.80;;;21.70;28.50;;;;;;2273043;61;20415;-60
2023/11/11 05:16:20;0.00;0.00;0.62;0.00;0.00;0.62;2.60;1.53;;;21.70;28.50;;;;;;2272675;61;20383;-60
2023/11/11 05:19:05;0.00;0.00;0.62;0.00;0.00;0.62;2.37;1.60;;;21.70;28.50;;;;;;2272514;61;20420;-60
2023/11/11 05:21:50;0.00;0.00;0.62;0.00;0.00;0.62;3.00;1.83;;;21.70;28.50;;;;;;2272740;61;20428;-60
2023/11/11 05:24:34;0.00;0.00;0.62;0.00;0.00;0.62;2.80;1.60;;;21.70;28.50;;;;;;2272732;61;20466;-61
2023/11/11 05:27:20;0.00;0.00;0.62;0.00;0.00;0.62;2.20;1.63;;;21.70;28.50;;;;;;2272864;61;20870;-61
2023/11/11 05:30:08;0.00;0.00;0.62;0.00;0.00;0.62;2.80;1.80;;;21.70;28.50;;;;;;2272397;61;20358;-61
2023/11/11 05:32:53;0.00;0.00;0.62;0.00;0.00;0.62;2.70;1.63;;;21.70;28.50;;;;;;2272561;61;20398;-63
2023/11/11 05:35:37;0.00;0.00;0.62;0.00;0.00;0.62;2.57;1.60;;;21.70;28.50;;;;;;2272840;61;20378;-62
2023/11/11 05:38:22;0.00;0.00;0.62;0.00;0.00;0.62;1.90;1.40;;;21.70;28.50;;;;;;2272077;61;20362;-61
2023/11/11 05:41:06;0.00;0.00;0.62;0.00;0.00;0.62;2.50;1.43;;;21.70;28.50;;;;;;2272733;61;20386;-61
2023/11/11 05:43:52;0.00;0.00;0.62;0.00;0.00;0.62;2.73;1.70;;;21.70;28.50;;;;;;2271155;61;20370;-62
2023/11/11 05:46:37;0.00;0.00;0.62;0.00;0.00;0.62;2.67;1.63;;;21.70;28.50;;;;;;2272455;61;20501;-62
2023/11/11 05:49:22;0.00;0.00;0.62;0.00;0.00;0.62;2.70;1.53;;;21.70;28.60;;;;;;2271926;61;20370;-61
2023/11/11 05:52:07;0.00;0.00;0.62;0.00;0.00;0.62;3.70;2.00;;;21.70;28.60;;;;;;2272631;60;20366;-61
2023/11/11 05:54:52;0.00;0.00;0.62;0.00;0.00;0.62;2.33;1.53;;;21.70;28.60;;;;;;2272263;61;20389;-62
2023/11/11 05:57:38;0.00;0.00;0.62;0.00;0.00;0.62;2.90;1.80;;;21.70;28.60;;;;;;2272601;61;20774;-62
2023/11/11 06:00:24;0.00;0.00;0.62;0.00;0.00;0.62;2.30;1.80;;;21.70;28.60;;;;;;2272346;61;20382;-59
2023/11/11 06:03:09;0.00;0.00;0.62;0.00;0.00;0.62;2.77;1.60;;;21.70;28.60;;;;;;2273525;61;20385;-62
2023/11/11 06:05:53;0.00;0.00;0.62;0.00;0.00;0.62;2.20;1.33;;;21.70;28.60;;;;;;2269874;61;20381;-60
2023/11/11 06:08:38;0.00;0.00;0.62;0.00;0.00;0.62;2.37;1.40;;;21.70;28.60;;;;;;2272769;61;20374;-62
2023/11/11 06:11:23;0.00;0.00;0.62;0.00;0.00;0.62;2.83;1.93;;;21.70;28.60;;;;;;2273370;61;20359;-61
2023/11/11 06:14:07;0.00;0.00;0.62;0.00;0.00;0.62;1.90;1.23;;;21.70;28.60;;;;;;2273264;61;20932;-62
2023/11/11 06:16:53;0.00;0.00;0.62;0.00;0.00;0.62;1.93;1.27;;;21.70;28.60;;;;;;2273431;61;20363;-61
2023/11/11 06:19:38;0.00;0.00;0.62;0.00;0.00;0.62;2.13;1.30;;;21.70;28.60;;;;;;2273312;61;20427;-62
2023/11/11 06:22:22;0.00;0.00;0.62;0.00;0.00;0.62;2.03;1.50;;;21.70;28.60;;;;;;2273457;61;20408;-63
2023/11/11 06:25:08;0.00;0.00;0.62;0.00;0.00;0.62;2.13;1.53;;;21.70;28.60;;;;;;2272778;61;20469;-60
2023/11/11 06:27:53;0.00;0.00;0.62;0.00;0.00;0.62;1.90;1.27;;;21.70;28.60;;;;;;2273147;61;20427;-61
2023/11/11 06:30:38;0.00;0.00;0.62;0.00;0.00;0.62;2.37;1.67;;;21.70;28.60;;;;;;2273192;61;20366;-62
2023/11/11 06:33:24;0.00;0.00;0.62;0.00;0.00;0.62;2.43;1.40;;;21.70;28.60;;;;;;2273527;61;20362;-60
2023/11/11 06:36:10;0.00;0.00;0.62;0.00;0.00;0.62;2.97;1.77;;;21.70;28.60;;;;;;2268775;61;20939;-61
2023/11/11 06:38:54;0.00;0.00;0.62;0.00;0.00;0.62;2.53;1.73;;;21.70;28.60;;;;;;2293559;57;20704;-61
2023/11/11 06:41:41;0.00;0.00;0.62;0.00;0.00;0.62;2.40;1.40;;;21.70;28.60;;;;;;2269375;61;20941;-60
2023/11/11 06:44:25;0.00;0.00;0.62;0.00;0.00;0.62;2.43;1.40;;;21.70;28.60;;;;;;2269203;61;21002;-61
2023/11/11 06:47:14;0.00;0.00;0.62;0.00;0.00;0.62;2.13;1.20;;;21.70;28.60;;;;;;2269339;61;20412;-60
2023/11/11 06:50:01;0.00;0.00;0.62;0.00;0.00;0.62;2.40;1.40;;;21.70;28.60;;;;;;2265655;61;20594;-60
2023/11/11 06:52:46;0.00;0.00;0.62;0.00;0.00;0.62;2.10;1.40;;;21.70;28.60;;;;;;2268806;61;20378;-59
2023/11/11 06:55:31;0.00;0.00;0.62;0.00;0.00;0.62;1.97;1.30;;;21.70;28.60;;;;;;2268989;61;20416;-60
2023/11/11 06:58:16;0.00;0.00;0.62;0.00;0.00;0.62;1.90;1.07;;;21.70;28.60;;;;;;2268694;61;20359;-61
2023/11/11 07:01:01;0.00;0.00;0.62;0.00;0.00;0.62;2.80;1.77;;;21.70;29.10;;;;;;2268645;61;20398;-59
2023/11/11 07:03:45;0.00;0.00;0.62;0.00;0.00;0.62;2.03;1.33;;;21.70;28.60;;;;;;2269443;61;20405;-61
2023/11/11 07:06:31;0.00;0.00;0.62;0.00;0.00;0.62;2.23;1.40;;;21.70;28.60;;;;;;2270195;61;20367;-60
2023/11/11 07:09:15;0.00;0.00;0.62;0.00;0.00;0.62;2.33;1.50;;;21.70;28.60;;;;;;2269602;61;20899;-62
2023/11/11 07:12:00;0.00;0.00;0.62;0.00;0.00;0.62;2.53;1.70;;;21.70;28.60;;;;;;2270086;61;20413;-61
2023/11/11 07:14:45;0.00;0.00;0.62;0.00;0.00;0.62;2.00;1.20;;;21.70;28.60;;;;;;2269810;61;20383;-62
2023/11/11 07:17:30;0.00;0.00;0.62;0.00;0.00;0.62;2.30;1.60;;;21.70;28.60;;;;;;2269689;61;20872;-62
2023/11/11 07:20:18;0.00;0.00;0.62;0.00;0.00;0.62;1.87;1.13;;;21.70;28.70;;;;;;2269918;61;20491;-60
2023/11/11 07:23:04;0.00;0.00;0.62;0.00;0.00;0.62;2.60;1.50;;;21.60;28.50;;;;;;2269494;61;20817;-63
2023/11/11 07:25:49;0.00;0.00;0.62;0.00;0.00;0.62;3.33;1.70;;;21.70;28.60;;;;;;2269945;61;21029;-63
2023/11/11 07:28:34;0.00;0.00;0.62;0.00;0.00;0.62;2.13;1.43;;;21.70;28.60;;;;;;2265959;61;20370;-61
2023/11/11 07:31:22;0.00;0.00;0.62;0.00;0.00;0.62;2.20;1.43;;;21.60;28.50;;;;;;2269929;61;20358;-63
2023/11/11 07:34:08;0.00;0.00;0.62;0.00;0.00;0.62;3.00;2.20;;;21.60;28.50;;;;;;2269825;61;20530;-61
2023/11/11 07:36:52;0.00;0.00;0.62;0.00;0.00;0.62;3.00;2.20;;;21.60;28.50;;;;;;2269792;61;20450;-62
2023/11/11 07:39:38;0.00;0.00;0.62;0.00;0.00;0.62;2.80;2.10;;;21.60;28.60;;;;;;2265858;61;20362;-64
2023/11/11 07:42:23;0.00;0.00;0.62;0.00;0.00;0.62;2.63;1.97;;;21.60;28.50;;;;;;2269498;61;20408;-63
2023/11/11 07:45:09;0.00;0.00;0.62;0.00;0.00;0.62;3.30;2.17;;;21.60;28.60;;;;;;2266125;61;20467;-63
2023/11/11 07:47:54;0.00;0.00;0.62;0.00;0.00;0.62;3.33;2.30;;;21.60;28.50;;;;;;2269001;61;20363;-63
2023/11/11 07:50:38;0.00;0.00;0.62;0.00;0.00;0.62;2.87;2.07;;;21.60;28.60;;;;;;2273885;61;20392;-61
2023/11/11 07:53:24;0.00;0.00;0.62;0.00;0.00;0.62;2.87;2.30;;;21.60;28.60;;;;;;2273514;61;20365;-61
2023/11/11 07:56:10;0.00;0.00;0.62;0.00;0.00;0.62;4.13;2.80;;;21.60;28.60;;;;;;2273481;61;20386;-61
2023/11/11 07:58:55;0.00;0.00;0.62;0.00;0.00;0.62;3.30;2.60;;;21.60;28.60;;;;;;2273157;61;20374;-61
2023/11/11 08:01:40;0.00;0.00;0.62;0.00;0.00;0.62;4.67;3.17;;;21.60;28.60;;;;;;2273561;61;20486;-61
2023/11/11 08:04:25;0.00;0.00;0.62;0.00;0.00;0.62;4.17;2.80;;;21.60;28.60;;;;;;2288021;40;20439;-60
2023/11/11 08:07:11;0.00;0.00;0.62;0.00;0.00;0.62;3.40;2.37;;;21.60;28.60;;;;;;2273934;61;20381;-61
2023/11/11 08:09:56;0.00;0.00;0.62;0.00;0.00;0.62;3.70;2.70;;;21.60;28.50;;;;;;2272951;61;20405;-60
2023/11/11 08:12:42;0.00;0.00;0.62;0.00;0.00;0.62;2.70;2.30;;;21.60;28.60;;;;;;2273445;61;20789;-60
2023/11/11 08:15:27;0.00;0.00;0.62;0.00;0.00;0.62;3.40;2.77;;;21.60;28.60;;;;;;2273313;60;20400;-61
2023/11/11 08:18:12;0.00;0.00;0.62;0.00;0.00;0.62;4.83;2.80;;;21.60;28.60;;;;;;2273219;61;20361;-61
2023/11/11 08:20:56;0.00;0.00;0.62;0.00;0.00;0.62;3.50;2.67;;;21.60;28.60;;;;;;2273116;61;20382;-63
2023/11/11 08:23:41;0.00;0.00;0.62;0.00;0.00;0.62;4.53;2.97;;;21.60;28.60;;;;;;2273635;61;20376;-62
2023/11/11 08:26:26;0.00;0.00;0.62;0.00;0.00;0.62;4.93;3.73;;;21.60;28.60;;;;;;2273885;61;20386;-62
2023/11/11 08:29:12;0.00;0.00;0.62;0.00;0.00;0.62;5.67;3.20;;;21.60;28.60;;;;;;2272651;61;20898;-62
2023/11/11 08:31:57;0.00;0.00;0.62;0.00;0.00;0.62;4.37;3.07;;;21.60;29.10;;;;;;2273559;61;20457;-62
2023/11/11 08:34:42;0.00;0.00;0.62;0.00;0.00;0.62;3.73;2.87;;;21.60;28.60;;;;;;2273456;61;20394;-60
2023/11/11 08:37:26;0.00;0.00;0.62;0.00;0.00;0.62;4.20;2.63;;;21.60;28.60;;;;;;2273254;61;20358;-62
2023/11/11 08:40:13;0.00;0.00;0.62;0.00;0.00;0.62;3.40;2.23;;;21.60;28.60;;;;;;2273200;61;20441;-63
2023/11/11 08:42:57;0.00;0.00;0.62;0.00;0.00;0.62;3.30;2.60;;;21.60;28.60;;;;;;2273438;61;20362;-62
2023/11/11 08:45:43;0.00;0.00;0.62;0.00;0.00;0.62;4.73;3.07;;;21.60;28.60;;;;;;2273053;61;20828;-66
2023/11/11 08:48:30;0.00;0.00;0.62;0.00;0.00;0.62;4.43;3.27;;;21.60;28.60;;;;;;2273013;61;20423;-61
2023/11/11 08:51:15;0.00;0.00;0.62;0.00;0.00;0.62;3.30;2.70;;;21.60;28.60;;;;;;2273184;61;20764;-61
2023/11/11 08:54:00;0.00;0.00;0.62;0.00;0.00;0.62;3.73;3.10;;;21.60;28.60;;;;;;2273479;61;20366;-62
2023/11/11 08:56:45;0.00;0.00;0.62;0.00;0.00;0.62;3.50;2.70;;;21.60;28.60;;;;;;2273362;61;20376;-61
2023/11/11 08:59:30;0.00;0.00;0.62;0.00;0.00;0.62;3.93;3.13;;;21.60;28.60;;;;;;2272645;61;20911;-62
2023/11/11 09:02:15;0.00;0.00;0.62;0.00;0.00;0.62;4.23;2.97;;;21.60;28.60;;;;;;2273116;61;20436;-60
2023/11/11 09:05:00;0.00;0.00;0.62;0.00;0.00;0.62;5.47;3.37;;;21.60;28.60;;;;;;2273046;61;20394;-61
2023/11/11 09:07:44;0.00;0.00;0.62;0.00;0.00;0.62;4.43;3.33;;;21.60;28.60;;;;;;2273160;61;20895;-62
2023/11/11 09:10:31;0.00;0.00;0.62;0.00;0.00;0.62;4.60;3.50;;;21.60;28.60;;;;;;2273359;61;20641;-62
2023/11/11 09:13:17;0.00;0.00;0.62;0.00;0.00;0.62;5.83;4.30;;;21.60;28.60;;;;;;2273034;61;21031;-61
2023/11/11 09:16:02;0.00;0.00;0.62;0.00;0.00;0.62;5.07;4.10;;;21.60;28.60;;;;;;2273650;61;20393;-63
2023/11/11 09:18:49;0.00;0.00;0.62;0.00;0.00;0.62;5.40;3.97;;;21.60;28.60;;;;;;2273145;61;20384;-61
2023/11/11 09:21:38;0.00;0.00;0.62;0.00;0.00;0.62;5.03;3.90;;;21.60;28.60;;;;;;2273061;61;20401;-62
2023/11/11 09:24:23;0.00;0.00;0.62;0.00;0.00;0.62;4.87;3.77;;;21.60;28.60;;;;;;2273761;61;20424;-62
2023/11/11 09:27:07;0.00;0.00;0.62;0.00;0.00;0.62;5.23;4.30;;;21.60;28.60;;;;;;2273327;60;20770;-62
2023/11/11 09:29:52;0.00;0.00;0.62;0.00;0.00;0.62;5.47;4.13;;;21.60;28.60;;;;;;2273244;61;20355;-63
2023/11/11 09:32:37;0.00;0.00;0.62;0.00;0.00;0.62;5.77;4.60;;;21.60;29.10;;;;;;2273680;61;20451;-60
2023/11/11 09:35:24;0.00;0.00;0.62;0.00;0.00;0.62;5.60;4.90;;;21.60;28.60;;;;;;2273382;61;20402;-60
2023/11/11 09:38:09;0.00;0.00;0.62;0.00;0.00;0.62;5.17;4.10;;;21.60;28.60;;;;;;2273060;61;20362;-60
2023/11/11 09:40:53;0.00;0.00;0.62;0.00;0.00;0.62;6.07;5.03;;;21.60;28.60;;;;;;2273427;61;20413;-60
2023/11/11 09:43:38;0.00;0.00;0.62;0.00;0.00;0.62;6.30;5.10;;;21.60;28.60;;;;;;2273259;61;20894;-61
2023/11/11 09:46:27;0.00;0.00;0.62;0.00;0.00;0.62;6.53;5.83;;;21.60;28.60;;;;;;2273506;61;20424;-62
2023/11/11 09:49:13;0.00;0.00;0.62;0.00;0.00;0.62;8.23;6.10;;;21.60;28.60;;;;;;2273233;61;20774;-60
2023/11/11 09:52:00;0.00;0.00;0.62;0.00;0.00;0.62;8.13;5.37;;;21.60;28.60;;;;;;2273602;61;20429;-59
2023/11/11 09:54:46;0.00;0.00;0.62;0.00;0.00;0.62;6.90;5.60;;;21.60;28.60;;;;;;2273371;61;20386;-61
2023/11/11 09:57:32;0.00;0.00;0.62;0.00;0.00;0.62;7.63;6.40;;;21.60;28.60;;;;;;2272939;61;20362;-61
2023/11/11 10:00:17;0.00;0.00;0.62;0.00;0.00;0.62;7.20;6.13;;;21.60;28.60;;;;;;2272749;61;20382;-61
2023/11/11 10:03:02;0.00;0.00;0.62;0.00;0.00;0.62;8.40;5.90;;;21.60;28.60;;;;;;2272929;61;20363;-61
2023/11/11 10:05:47;0.00;0.00;0.62;0.00;0.00;0.62;7.17;6.40;;;21.60;28.60;;;;;;2272823;61;20389;-63
2023/11/11 10:08:33;0.00;0.00;0.62;0.00;0.00;0.62;7.90;6.10;;;21.60;28.60;;;;;;2272848;61;20409;-61
2023/11/11 10:11:18;0.00;0.00;0.62;0.00;0.00;0.62;6.97;6.00;;;21.60;28.60;;;;;;2272512;61;21059;-62
2023/11/11 10:14:03;0.00;0.00;0.62;0.00;0.00;0.62;6.57;5.70;;;21.60;28.60;;;;;;2272612;61;20362;-62
2023/11/11 10:16:52;0.00;0.00;0.62;0.00;0.00;0.62;9.07;6.40;;;21.60;28.60;;;;;;2272231;61;20362;-62
2023/11/11 10:19:41;0.00;0.00;0.62;0.00;0.00;0.62;7.67;5.80;;;21.60;28.70;;;;;;2272069;61;20371;-62
2023/11/11 10:22:26;0.00;0.00;0.62;0.00;0.00;0.62;8.87;7.00;;;21.60;28.60;;;;;;2272795;61;20412;-64
2023/11/11 10:25:14;0.00;0.00;0.62;0.00;0.00;0.62;8.77;6.60;;;21.60;28.60;;;;;;2272772;61;20385;-62
2023/11/11 10:27:59;0.00;0.00;0.62;0.00;0.00;0.62;7.97;5.87;;;21.60;28.70;;;;;;2272158;61;20363;-63
2023/11/11 10:30:45;0.00;0.00;0.62;0.00;0.00;0.62;7.87;6.23;;;21.60;28.60;;;;;;2272939;61;20384;-62
2023/11/11 10:33:29;0.00;0.00;0.62;0.00;0.00;0.62;7.77;6.10;;;21.60;28.60;;;;;;2272711;61;20370;-60
2023/11/11 10:36:14;0.00;0.00;0.62;0.00;0.00;0.62;7.30;6.20;;;21.60;28.60;;;;;;2272566;61;20381;-62
2023/11/11 10:38:59;0.00;0.00;0.62;0.00;0.00;0.62;10.30;5.60;;;21.60;28.60;;;;;;2272627;61;20377;-60
2023/11/11 10:41:46;0.00;0.00;0.62;0.00;0.00;0.62;7.90;6.00;;;21.60;28.70;;;;;;2272499;61;20393;-62
2023/11/11 10:44:32;0.00;0.00;0.62;0.00;0.00;0.62;7.00;6.17;;;21.60;28.60;;;;;;2272800;61;20528;-61
2023/11/11 10:47:17;0.00;0.00;0.62;0.00;0.00;0.62;6.67;5.97;;;21.60;28.60;;;;;;2272646;61;20974;-61
2023/11/11 10:50:03;0.00;0.00;0.62;0.00;0.00;0.62;7.67;6.20;;;21.60;28.60;;;;;;2272395;61;20405;-62
2023/11/11 10:52:51;0.00;0.00;0.62;0.00;0.00;0.62;6.47;5.73;;;21.60;28.60;;;;;;2272652;61;20358;-61